Time;durP1;ratioP1;P1;durP2;ratioP2;P2;SDS_P1;SDS_P2;PMS_P1;PMS_P2;Temp;Humidity;BMP_temperature;BMP_pressure;BME280_temperature;BME280_humidity;BME280_pressure;Samples;Min_cycle;Max_cycle;Signal;HPM_P1;HPM_P2
2022/11/09 06:00:23;;;;;;;5.50;5.00;;;12.70;97.20;;;;;;1707567;28;20599;-72
2022/11/09 06:01:15;;;;;;;4.38;3.92;;;12.70;97.20;;;;;;1707433;28;20202;-73
2022/11/09 06:02:07;;;;;;;4.70;4.18;;;12.70;97.20;;;;;;1707349;28;20199;-72
2022/11/09 06:03:01;;;;;;;6.68;4.55;;;12.70;97.20;;;;;;1707371;28;20233;-72
2022/11/09 06:03:54;;;;;;;4.78;3.92;;;12.70;97.20;;;;;;1703716;28;20624;-73
2022/11/09 06:04:45;;;;;;;4.13;3.70;;;12.70;97.20;;;;;;1707344;28;20230;-72
2022/11/09 06:05:38;;;;;;;5.87;4.60;;;12.70;97.20;;;;;;1710789;28;20198;-73
2022/11/09 06:06:29;;;;;;;4.60;4.15;;;12.70;97.20;;;;;;1709390;28;20668;-72
2022/11/09 06:07:20;;;;;;;5.33;4.60;;;12.70;97.20;;;;;;1707321;28;20587;-72
2022/11/09 06:08:13;;;;;;;5.32;4.75;;;12.70;97.20;;;;;;1707022;28;20199;-72
2022/11/09 06:09:05;;;;;;;4.70;4.25;;;12.70;97.20;;;;;;1707345;28;20265;-71
2022/11/09 06:09:56;;;;;;;4.13;3.60;;;12.70;97.20;;;;;;1709362;28;20621;-72
2022/11/09 06:10:47;;;;;;;4.60;4.00;;;12.70;97.20;;;;;;1707327;28;20634;-71
2022/11/09 06:11:38;;;;;;;4.47;3.78;;;12.70;97.20;;;;;;1707456;28;20202;-71
2022/11/09 06:12:30;;;;;;;4.10;3.43;;;12.70;97.20;;;;;;1707422;28;20206;-73
2022/11/09 06:13:20;;;;;;;3.85;3.50;;;12.60;97.20;;;;;;1707497;28;20672;-72
2022/11/09 06:14:12;;;;;;;3.80;3.50;;;12.60;97.20;;;;;;1707570;28;20567;-72
2022/11/09 06:15:04;;;;;;;4.53;4.13;;;12.60;97.20;;;;;;1707509;28;20214;-71
2022/11/09 06:15:59;;;;;;;7.38;4.00;;;12.70;97.20;;;;;;1707486;28;20539;-71
2022/11/09 06:16:50;;;;;;;4.05;3.67;;;12.60;97.20;;;;;;1707084;28;20214;-71
2022/11/09 06:17:41;;;;;;;3.63;3.33;;;12.70;97.20;;;;;;1707480;28;20202;-71
2022/11/09 06:18:35;;;;;;;3.95;3.00;;;12.70;97.20;;;;;;1707251;28;20210;-71
2022/11/09 06:19:26;;;;;;;2.97;2.75;;;12.70;97.20;;;;;;1707519;28;20637;-71
2022/11/09 06:20:17;;;;;;;3.15;2.85;;;12.70;97.20;;;;;;1707268;28;20206;-71
2022/11/09 06:21:10;;;;;;;3.63;3.17;;;12.70;97.20;;;;;;1707438;28;20199;-70
2022/11/09 06:22:01;;;;;;;3.55;3.25;;;12.70;97.20;;;;;;1708041;28;20205;-71
2022/11/09 06:22:54;;;;;;;4.00;3.60;;;12.70;97.20;;;;;;1700728;29;20231;-71
2022/11/09 06:23:45;;;;;;;3.63;3.33;;;12.70;97.20;;;;;;1700860;29;20546;-72
2022/11/09 06:24:36;;;;;;;5.00;3.70;;;12.70;97.20;;;;;;1700783;29;20214;-75
2022/11/09 06:25:27;;;;;;;4.57;4.18;;;12.70;97.20;;;;;;1700790;29;20203;-71
2022/11/09 06:26:19;;;;;;;4.55;4.20;;;12.70;97.20;;;;;;1700896;29;20254;-72
2022/11/09 06:27:10;;;;;;;10.85;9.63;;;12.70;97.20;;;;;;1705834;29;20693;-72
2022/11/09 06:28:02;;;;;;;8.63;7.50;;;12.70;97.20;;;;;;1706706;28;20591;-72
2022/11/09 06:28:52;;;;;;;9.15;8.15;;;12.70;97.20;;;;;;1700570;29;20199;-72
2022/11/09 06:29:44;;;;;;;10.97;9.30;;;12.70;97.20;;;;;;1700732;29;20211;-72
2022/11/09 06:30:35;;;;;;;7.55;6.82;;;12.70;97.20;;;;;;1700512;29;20254;-72
2022/11/09 06:31:28;;;;;;;7.97;7.17;;;12.70;97.20;;;;;;1700701;29;20229;-72
2022/11/09 06:32:18;;;;;;;6.63;6.00;;;12.80;97.20;;;;;;1704648;28;20214;-72
2022/11/09 06:33:10;;;;;;;7.10;6.43;;;12.80;97.20;;;;;;1707363;28;20198;-72
2022/11/09 06:34:02;;;;;;;7.32;5.75;;;12.80;97.20;;;;;;1706642;28;20203;-72
2022/11/09 06:34:56;;;;;;;5.65;4.75;;;12.80;97.20;;;;;;1700292;28;20191;-73
2022/11/09 06:35:47;;;;;;;5.32;4.68;;;12.80;97.20;;;;;;1702150;28;20199;-71
2022/11/09 06:36:38;;;;;;;5.35;4.90;;;12.70;97.20;;;;;;1706243;28;20285;-72
2022/11/09 06:37:29;;;;;;;4.70;4.18;;;12.70;97.20;;;;;;1707498;28;20222;-71
2022/11/09 06:38:21;;;;;;;5.67;4.13;;;12.70;97.20;;;;;;1706908;28;20214;-71
2022/11/09 06:39:12;;;;;;;4.50;4.20;;;12.70;97.20;;;;;;1706263;28;20574;-71
2022/11/09 06:40:04;;;;;;;4.87;4.43;;;12.70;97.20;;;;;;1707267;28;20548;-71
2022/11/09 06:40:59;;;;;;;5.07;4.45;;;12.70;97.20;;;;;;1707194;28;20466;-72
2022/11/09 06:41:51;;;;;;;5.20;4.80;;;12.70;97.20;;;;;;1707085;28;20566;-71
2022/11/09 06:42:42;;;;;;;6.20;5.65;;;12.70;97.20;;;;;;1706625;28;20206;-72
2022/11/09 06:43:33;;;;;;;5.97;5.47;;;12.70;97.20;;;;;;1707154;28;20229;-72
2022/11/09 06:44:24;;;;;;;5.35;4.80;;;12.60;97.20;;;;;;1707222;28;20238;-71
2022/11/09 06:45:16;;;;;;;5.67;5.00;;;12.60;97.20;;;;;;1707039;28;20205;-71
2022/11/09 06:46:09;;;;;;;7.32;5.60;;;12.70;97.20;;;;;;1706681;28;20678;-72
2022/11/09 06:47:02;;;;;;;5.93;5.07;;;12.70;97.20;;;;;;1706992;28;20205;-72
2022/11/09 06:47:54;;;;;;;6.25;5.32;;;12.70;97.20;;;;;;1707065;28;20203;-72
2022/11/09 06:48:46;;;;;;;9.27;5.78;;;12.70;97.20;;;;;;1707063;28;20207;-71
2022/11/09 06:49:37;;;;;;;9.77;4.90;;;12.70;97.20;;;;;;1707055;28;20210;-71
2022/11/09 06:50:31;;;;;;;8.93;4.80;;;12.70;97.20;;;;;;1706627;28;20210;-70
2022/11/09 06:51:22;;;;;;;9.30;4.72;;;12.70;97.20;;;;;;1707046;28;20199;-70
2022/11/09 06:52:14;;;;;;;8.25;4.40;;;12.70;97.20;;;;;;1707134;28;20225;-70
2022/11/09 06:53:07;;;;;;;6.97;4.30;;;12.70;97.20;;;;;;1706466;28;20202;-70
2022/11/09 06:53:58;;;;;;;4.85;4.32;;;12.60;97.20;;;;;;1710049;28;20252;-71
2022/11/09 06:54:49;;;;;;;7.57;3.90;;;12.60;97.20;;;;;;1713798;28;20205;-71
2022/11/09 06:55:41;;;;;;;6.63;3.93;;;12.60;97.20;;;;;;1713868;28;20201;-71
2022/11/09 06:56:32;;;;;;;7.10;4.30;;;12.60;97.20;;;;;;1713179;28;20217;-71
2022/11/09 06:57:23;;;;;;;5.43;3.90;;;12.60;97.20;;;;;;1713689;28;20233;-71
2022/11/09 06:58:14;;;;;;;5.05;3.80;;;12.60;97.20;;;;;;1713616;28;20206;-71
2022/11/09 06:59:06;;;;;;;8.35;4.25;;;12.70;97.20;;;;;;1713833;28;20558;-70
2022/11/09 06:59:59;;;;;;;4.93;3.60;;;12.70;97.20;;;;;;1713731;28;20249;-71
2022/11/09 07:00:50;;;;;;;5.43;4.00;;;12.70;97.20;;;;;;1713669;28;20300;-71
2022/11/09 07:01:41;;;;;;;4.05;3.70;;;12.70;97.20;;;;;;1713764;28;20217;-71
2022/11/09 07:02:34;;;;;;;6.03;4.00;;;12.70;97.20;;;;;;1713692;28;20212;-71
2022/11/09 07:03:25;;;;;;;6.53;3.58;;;12.70;97.20;;;;;;1713759;28;20213;-71
2022/11/09 07:04:17;;;;;;;5.90;4.18;;;12.70;97.20;;;;;;1713802;28;20194;-70
2022/11/09 07:05:08;;;;;;;5.45;4.13;;;12.70;97.20;;;;;;1713728;28;20198;-71
2022/11/09 07:06:05;;;;;;;7.07;3.53;;;12.70;97.20;;;;;;1713847;28;20225;-71
2022/11/09 07:06:56;;;;;;;4.32;3.63;;;12.70;97.20;;;;;;1713272;28;20206;-71
2022/11/09 07:07:47;;;;;;;6.00;4.40;;;12.70;97.20;;;;;;1706534;28;20195;-71
2022/11/09 07:08:39;;;;;;;4.55;3.85;;;12.70;97.20;;;;;;1706986;28;20213;-71
2022/11/09 07:09:31;;;;;;;7.15;4.03;;;12.70;97.20;;;;;;1707085;28;20283;-71
2022/11/09 07:10:22;;;;;;;4.07;3.78;;;12.70;97.20;;;;;;1707143;28;20688;-71
2022/11/09 07:11:15;;;;;;;3.80;3.50;;;12.70;97.20;;;;;;1707100;28;20564;-70
2022/11/09 07:12:06;;;;;;;5.25;4.40;;;12.70;97.20;;;;;;1706924;28;20458;-70
2022/11/09 07:12:58;;;;;;;5.67;4.70;;;12.70;97.20;;;;;;1707083;28;20198;-70
2022/11/09 07:13:49;;;;;;;7.18;5.35;;;12.80;97.20;;;;;;1707058;28;20469;-70
2022/11/09 07:14:41;;;;;;;6.30;5.70;;;12.80;97.20;;;;;;1707138;28;20286;-71
2022/11/09 07:15:32;;;;;;;5.10;4.65;;;12.80;97.20;;;;;;1706981;28;20692;-71
2022/11/09 07:16:24;;;;;;;5.75;5.25;;;12.80;97.20;;;;;;1706546;28;20214;-71
2022/11/09 07:17:15;;;;;;;7.35;5.95;;;12.80;97.20;;;;;;1706846;28;20265;-70
2022/11/09 07:18:11;;;;;;;15.13;7.53;;;12.80;97.20;;;;;;1707037;28;20207;-70
2022/11/09 07:19:02;;;;;;;7.35;6.50;;;12.70;97.20;;;;;;1707121;28;20213;-71
2022/11/09 07:19:53;;;;;;;6.83;6.23;;;12.80;97.20;;;;;;1707053;28;20213;-71
2022/11/09 07:20:44;;;;;;;6.95;5.80;;;12.80;97.20;;;;;;1707010;28;20461;-71
2022/11/09 07:21:36;;;;;;;7.40;6.60;;;12.80;97.20;;;;;;1704296;28;20201;-71
2022/11/09 07:22:27;;;;;;;9.88;7.68;;;12.70;97.20;;;;;;1700494;29;20203;-71
2022/11/09 07:23:19;;;;;;;6.68;6.10;;;12.70;97.20;;;;;;1700371;29;20227;-71
2022/11/09 07:24:10;;;;;;;7.20;5.97;;;12.70;97.20;;;;;;1700429;29;20203;-70
2022/11/09 07:25:01;;;;;;;7.00;6.30;;;12.70;97.20;;;;;;1700648;29;20204;-71
2022/11/09 07:25:53;;;;;;;5.75;5.18;;;12.70;97.20;;;;;;1700419;29;20215;-71
2022/11/09 07:26:44;;;;;;;5.75;5.25;;;12.80;97.20;;;;;;1699641;29;20280;-71
2022/11/09 07:27:36;;;;;;;6.13;5.00;;;12.80;97.20;;;;;;1700494;29;20203;-71
2022/11/09 07:28:27;;;;;;;5.28;4.88;;;12.80;97.20;;;;;;1700281;29;20209;-71
2022/11/09 07:29:18;;;;;;;4.65;4.25;;;12.80;97.20;;;;;;1700520;29;20592;-71
2022/11/09 07:30:11;;;;;;;4.40;4.07;;;12.80;97.20;;;;;;1702469;28;20221;-71
2022/11/09 07:31:02;;;;;;;4.70;4.30;;;12.80;97.20;;;;;;1713716;28;20213;-70
2022/11/09 07:31:54;;;;;;;6.40;4.75;;;12.80;97.20;;;;;;1713623;28;20198;-71
2022/11/09 07:32:44;;;;;;;5.75;4.80;;;12.80;97.20;;;;;;1713720;28;20217;-70
2022/11/09 07:33:37;;;;;;;8.90;5.57;;;12.80;97.20;;;;;;1713667;28;20212;-70
2022/11/09 07:34:28;;;;;;;5.03;4.60;;;12.80;97.20;;;;;;1713705;28;20803;-70
2022/11/09 07:35:20;;;;;;;5.43;4.93;;;12.80;97.20;;;;;;1713787;28;20674;-70
2022/11/09 07:36:11;;;;;;;5.32;4.82;;;12.80;97.20;;;;;;1705381;28;20723;-70
2022/11/09 07:37:02;;;;;;;5.03;4.63;;;12.80;97.20;;;;;;1706899;28;20596;-70
2022/11/09 07:37:53;;;;;;;6.25;4.78;;;12.80;97.20;;;;;;1707011;28;20221;-70
2022/11/09 07:38:45;;;;;;;5.47;4.27;;;12.80;97.20;;;;;;1706884;28;20198;-70
2022/11/09 07:39:36;;;;;;;5.03;4.30;;;12.80;97.20;;;;;;1707819;28;20452;-70
2022/11/09 07:40:27;;;;;;;5.80;4.73;;;12.80;97.20;;;;;;1708215;28;20213;-70
2022/11/09 07:41:18;;;;;;;4.70;4.30;;;12.80;97.20;;;;;;1708165;28;20213;-70
2022/11/09 07:42:10;;;;;;;4.10;3.70;;;12.80;97.20;;;;;;1708167;28;20199;-70
2022/11/09 07:43:02;;;;;;;4.80;4.30;;;12.80;97.20;;;;;;1708083;28;20202;-70
2022/11/09 07:43:53;;;;;;;4.50;4.10;;;12.80;97.20;;;;;;1707738;28;20285;-70
2022/11/09 07:44:44;;;;;;;4.32;3.92;;;12.80;97.20;;;;;;1708008;28;20229;-71
2022/11/09 07:45:36;;;;;;;4.73;4.13;;;12.80;97.20;;;;;;1707877;28;20207;-70
2022/11/09 07:46:27;;;;;;;5.22;4.72;;;12.90;97.20;;;;;;1707152;28;20214;-71
2022/11/09 07:47:19;;;;;;;4.37;3.97;;;12.90;97.20;;;;;;1707400;28;20688;-71
2022/11/09 07:48:11;;;;;;;4.95;4.45;;;12.90;97.20;;;;;;1707943;28;20442;-70
2022/11/09 07:49:04;;;;;;;3.88;3.58;;;12.90;97.20;;;;;;1708258;28;20242;-70
2022/11/09 07:49:55;;;;;;;5.72;3.97;;;12.90;97.20;;;;;;1706270;28;20206;-70
2022/11/09 07:50:47;;;;;;;4.37;3.97;;;12.90;97.20;;;;;;1701573;29;20225;-70
2022/11/09 07:51:38;;;;;;;4.43;4.03;;;12.90;97.20;;;;;;1701677;29;20210;-70
2022/11/09 07:52:29;;;;;;;5.27;4.77;;;12.90;97.20;;;;;;1701607;29;20679;-71
2022/11/09 07:53:20;;;;;;;5.90;5.40;;;12.90;97.20;;;;;;1701543;29;20435;-70
2022/11/09 07:54:12;;;;;;;6.47;5.87;;;12.90;97.20;;;;;;1701588;29;20195;-70
2022/11/09 07:55:03;;;;;;;6.25;5.65;;;13.00;97.20;;;;;;1701661;29;20217;-71
2022/11/09 07:55:59;;;;;;;6.97;6.00;;;12.90;97.20;;;;;;1701529;29;20206;-70
2022/11/09 07:56:50;;;;;;;5.00;4.57;;;13.00;97.20;;;;;;1701315;29;20693;-71
2022/11/09 07:57:43;;;;;;;5.20;4.63;;;13.00;97.20;;;;;;1701665;29;20695;-70
2022/11/09 07:58:35;;;;;;;5.00;4.45;;;13.00;97.20;;;;;;1701404;29;20208;-70
2022/11/09 07:59:26;;;;;;;6.10;4.70;;;13.00;97.20;;;;;;1701569;29;20576;-70
2022/11/09 08:00:19;;;;;;;4.53;4.23;;;13.00;97.20;;;;;;1702447;29;20203;-70
2022/11/09 08:01:10;;;;;;;4.40;4.00;;;13.00;97.20;;;;;;1701567;29;20235;-71
2022/11/09 08:02:01;;;;;;;4.80;4.30;;;13.00;97.20;;;;;;1701558;29;20210;-70
2022/11/09 08:02:54;;;;;;;4.43;3.97;;;13.00;97.20;;;;;;1701503;29;20213;-70
2022/11/09 08:03:45;;;;;;;5.05;4.30;;;13.00;97.20;;;;;;1701533;29;20207;-70
2022/11/09 08:04:37;;;;;;;5.20;4.25;;;12.90;97.20;;;;;;1701595;29;20203;-70
2022/11/09 08:05:29;;;;;;;4.90;4.32;;;13.00;97.20;;;;;;1701616;29;20281;-70
2022/11/09 08:06:23;;;;;;;4.10;3.80;;;12.90;97.20;;;;;;1701221;29;20200;-70
2022/11/09 08:07:13;;;;;;;4.68;4.28;;;12.90;97.20;;;;;;1701439;29;20211;-70
2022/11/09 08:08:07;;;;;;;5.23;4.80;;;12.90;97.20;;;;;;1701501;29;20199;-70
2022/11/09 08:08:58;;;;;;;4.32;3.80;;;12.90;97.20;;;;;;1701485;29;20218;-70
2022/11/09 08:09:50;;;;;;;5.33;4.60;;;12.90;97.20;;;;;;1701525;29;20207;-70
2022/11/09 08:10:42;;;;;;;4.30;3.90;;;12.90;97.20;;;;;;1701308;29;20596;-70
2022/11/09 08:11:33;;;;;;;4.75;3.83;;;12.90;97.20;;;;;;1701596;29;20210;-70
2022/11/09 08:12:24;;;;;;;4.50;3.97;;;12.90;97.20;;;;;;1701519;29;20215;-70
2022/11/09 08:13:16;;;;;;;6.38;4.50;;;12.90;97.20;;;;;;1701393;29;20203;-70
2022/11/09 08:14:08;;;;;;;4.00;3.70;;;12.90;97.20;;;;;;1701508;29;20202;-70
2022/11/09 08:14:59;;;;;;;4.32;3.90;;;12.90;97.20;;;;;;1706717;29;20207;-71
2022/11/09 08:15:50;;;;;;;4.37;3.90;;;12.90;97.20;;;;;;1707831;28;20700;-70
2022/11/09 08:16:42;;;;;;;8.57;3.88;;;12.90;97.20;;;;;;1707787;28;20213;-70
2022/11/09 08:17:33;;;;;;;3.60;3.30;;;12.90;97.20;;;;;;1708059;28;20218;-70
2022/11/09 08:18:24;;;;;;;3.93;3.53;;;12.90;97.20;;;;;;1707987;28;20216;-70
2022/11/09 08:19:15;;;;;;;3.78;3.42;;;12.90;97.20;;;;;;1708097;28;20582;-70
2022/11/09 08:20:09;;;;;;;4.60;3.50;;;12.90;97.20;;;;;;1708086;28;20223;-70
2022/11/09 08:21:01;;;;;;;4.00;3.60;;;12.90;97.20;;;;;;1707936;28;20481;-70
2022/11/09 08:21:56;;;;;;;5.40;3.13;;;12.90;97.20;;;;;;1708044;28;20205;-70
2022/11/09 08:22:47;;;;;;;4.30;3.85;;;12.90;97.20;;;;;;1708083;28;20213;-70
2022/11/09 08:23:39;;;;;;;4.10;3.70;;;12.90;97.20;;;;;;1708005;28;20313;-71
2022/11/09 08:24:29;;;;;;;5.03;3.90;;;12.90;97.20;;;;;;1707955;28;20592;-71
2022/11/09 08:25:21;;;;;;;3.80;3.37;;;12.90;97.20;;;;;;1708029;28;20576;-70
2022/11/09 08:26:12;;;;;;;5.05;3.80;;;12.90;97.20;;;;;;1707734;28;20217;-70
2022/11/09 08:27:04;;;;;;;5.03;3.70;;;12.90;97.20;;;;;;1708220;28;20282;-71
2022/11/09 08:27:55;;;;;;;4.88;3.50;;;12.90;97.20;;;;;;1707961;28;20199;-70
2022/11/09 08:28:47;;;;;;;3.55;3.20;;;12.90;97.20;;;;;;1705752;28;20285;-70
2022/11/09 08:29:37;;;;;;;5.50;3.78;;;12.90;97.20;;;;;;1701396;29;20210;-71
2022/11/09 08:30:30;;;;;;;4.43;3.20;;;12.90;97.20;;;;;;1701312;29;20211;-70
2022/11/09 08:31:20;;;;;;;4.65;3.40;;;12.90;97.20;;;;;;1701516;29;20666;-70
2022/11/09 08:32:12;;;;;;;4.10;3.13;;;12.90;97.20;;;;;;1701499;29;20579;-70
2022/11/09 08:33:03;;;;;;;3.95;3.65;;;12.90;97.20;;;;;;1701507;29;20219;-70
2022/11/09 08:33:55;;;;;;;3.40;2.83;;;12.90;97.20;;;;;;1701425;29;20195;-70
2022/11/09 08:34:47;;;;;;;3.85;3.30;;;12.90;97.20;;;;;;1701355;29;20207;-70
2022/11/09 08:35:40;;;;;;;3.50;3.20;;;12.90;97.20;;;;;;1701451;29;20297;-70
2022/11/09 08:36:31;;;;;;;4.40;3.35;;;12.90;97.20;;;;;;1701112;29;20215;-70
2022/11/09 08:37:23;;;;;;;4.32;2.90;;;12.90;97.20;;;;;;1701319;29;20286;-70
2022/11/09 08:38:13;;;;;;;4.68;3.05;;;12.90;97.20;;;;;;1701256;29;20210;-70
2022/11/09 08:39:05;;;;;;;3.77;3.13;;;12.90;97.20;;;;;;1701471;29;20643;-70
2022/11/09 08:39:56;;;;;;;3.92;3.50;;;13.00;97.20;;;;;;1701301;29;20214;-70
2022/11/09 08:40:48;;;;;;;3.40;3.10;;;13.00;97.20;;;;;;1701351;29;20219;-70
2022/11/09 08:41:38;;;;;;;2.97;2.70;;;13.00;97.20;;;;;;1701364;29;20693;-70
2022/11/09 08:42:30;;;;;;;2.90;2.70;;;13.00;97.20;;;;;;1701288;29;20666;-70
2022/11/09 08:43:22;;;;;;;2.65;2.42;;;13.00;97.20;;;;;;1705939;29;20469;-70
2022/11/09 08:44:13;;;;;;;4.57;2.80;;;13.00;97.20;;;;;;1707884;28;20229;-70
2022/11/09 08:45:05;;;;;;;3.63;2.63;;;13.00;97.20;;;;;;1707599;28;20203;-70
2022/11/09 08:45:56;;;;;;;2.65;2.38;;;13.00;97.20;;;;;;1707956;28;20257;-70
2022/11/09 08:46:48;;;;;;;4.13;2.77;;;13.00;97.20;;;;;;1707474;28;20202;-70
2022/11/09 08:47:39;;;;;;;2.75;2.55;;;13.00;97.20;;;;;;1707939;28;20222;-70
2022/11/09 08:48:30;;;;;;;2.90;2.30;;;13.00;97.20;;;;;;1707825;28;20281;-71
2022/11/09 08:49:21;;;;;;;2.83;2.15;;;13.00;97.20;;;;;;1707868;28;20450;-70
2022/11/09 08:50:14;;;;;;;2.53;2.33;;;13.00;97.20;;;;;;1707791;28;20205;-70
2022/11/09 08:51:07;;;;;;;6.72;2.10;;;13.00;97.20;;;;;;1707831;28;20233;-70
2022/11/09 08:51:58;;;;;;;2.10;1.90;;;13.00;97.20;;;;;;1707877;28;20214;-70
2022/11/09 08:52:50;;;;;;;2.47;2.07;;;13.00;97.20;;;;;;1707822;28;20208;-70
2022/11/09 08:53:40;;;;;;;2.03;1.80;;;13.10;97.20;;;;;;1707789;28;20225;-70
2022/11/09 08:54:32;;;;;;;2.53;1.93;;;13.10;97.20;;;;;;1707768;28;20206;-70
2022/11/09 08:55:23;;;;;;;2.50;2.30;;;13.10;97.20;;;;;;1707905;28;20206;-70
2022/11/09 08:56:17;;;;;;;4.07;2.00;;;13.10;97.20;;;;;;1707681;28;20206;-70
2022/11/09 08:57:08;;;;;;;3.92;2.10;;;13.10;97.20;;;;;;1706086;28;20581;-71
2022/11/09 08:58:02;;;;;;;2.27;2.00;;;13.10;97.20;;;;;;1707717;28;20225;-70
2022/11/09 08:58:52;;;;;;;1.90;1.70;;;13.10;97.20;;;;;;1707838;28;20807;-70
2022/11/09 08:59:44;;;;;;;2.23;1.80;;;13.10;97.20;;;;;;1707822;28;20583;-70
2022/11/09 09:00:35;;;;;;;1.90;1.80;;;13.10;97.20;;;;;;1707754;28;20222;-70
2022/11/09 09:01:27;;;;;;;3.60;1.90;;;13.10;97.20;;;;;;1707482;28;20202;-70
2022/11/09 09:02:17;;;;;;;2.70;1.80;;;13.10;97.20;;;;;;1707798;28;20449;-71
2022/11/09 09:03:09;;;;;;;1.60;1.50;;;13.10;97.20;;;;;;1707906;28;20205;-70
2022/11/09 09:04:01;;;;;;;1.40;1.30;;;13.20;97.20;;;;;;1707736;28;20488;-70
2022/11/09 09:04:52;;;;;;;1.50;1.10;;;13.20;97.20;;;;;;1707689;28;20315;-70
2022/11/09 09:05:43;;;;;;;2.07;1.60;;;13.20;97.20;;;;;;1707848;28;20225;-70
2022/11/09 09:06:35;;;;;;;5.10;1.90;;;13.20;97.20;;;;;;1707536;28;20206;-71
2022/11/09 09:07:27;;;;;;;2.05;1.67;;;13.20;97.20;;;;;;1707736;28;20595;-71
2022/11/09 09:08:21;;;;;;;1.67;1.50;;;13.20;97.20;;;;;;1707732;28;20205;-70
2022/11/09 09:09:12;;;;;;;2.08;1.42;;;13.20;97.20;;;;;;1707676;28;20229;-70
2022/11/09 09:10:04;;;;;;;1.57;1.43;;;13.20;97.20;;;;;;1707790;28;20210;-70
2022/11/09 09:10:55;;;;;;;2.25;1.50;;;13.20;97.20;;;;;;1707696;28;20222;-71
2022/11/09 09:11:47;;;;;;;1.77;1.33;;;13.20;97.20;;;;;;1703204;28;20187;-71
2022/11/09 09:12:38;;;;;;;2.75;1.38;;;13.20;97.20;;;;;;1701021;29;20195;-71
2022/11/09 09:13:30;;;;;;;1.30;1.03;;;13.20;97.20;;;;;;1701037;29;20199;-70
2022/11/09 09:14:20;;;;;;;1.50;1.33;;;13.20;97.20;;;;;;1701158;29;20207;-70
2022/11/09 09:15:12;;;;;;;1.60;1.50;;;13.20;97.20;;;;;;1701139;29;20289;-70
2022/11/09 09:16:15;;;;;;;2.40;1.80;;;13.20;97.20;;;;;;1701022;29;20457;-71
2022/11/09 09:17:05;;;;;;;1.55;1.45;;;13.20;97.20;;;;;;1701040;29;20204;-71
2022/11/09 09:18:00;;;;;;;1.90;1.30;;;13.20;97.20;;;;;;1701052;29;20199;-70
2022/11/09 09:18:51;;;;;;;2.80;1.83;;;13.20;97.20;;;;;;1701125;29;20347;-70
2022/11/09 09:19:42;;;;;;;1.60;1.50;;;13.20;97.20;;;;;;1701163;29;20336;-70
2022/11/09 09:20:33;;;;;;;1.50;1.40;;;13.20;97.20;;;;;;1701085;29;20603;-70
2022/11/09 09:21:25;;;;;;;1.77;1.30;;;13.30;97.20;;;;;;1701140;29;20575;-70
2022/11/09 09:22:18;;;;;;;1.50;1.40;;;13.30;97.20;;;;;;1701264;29;20669;-70
2022/11/09 09:23:11;;;;;;;1.63;1.35;;;13.30;97.20;;;;;;1706535;29;20198;-70
2022/11/09 09:24:02;;;;;;;1.95;1.60;;;13.30;97.20;;;;;;1707548;28;20349;-70
2022/11/09 09:24:54;;;;;;;1.70;1.60;;;13.30;97.20;;;;;;1707689;28;20551;-70
2022/11/09 09:25:45;;;;;;;1.42;1.30;;;13.30;97.20;;;;;;1707654;28;20206;-70
2022/11/09 09:26:36;;;;;;;1.97;1.77;;;13.30;97.20;;;;;;1707418;28;20212;-70
2022/11/09 09:27:28;;;;;;;1.92;1.55;;;13.30;97.20;;;;;;1707649;28;20713;-70
2022/11/09 09:28:20;;;;;;;1.45;1.35;;;13.30;97.20;;;;;;1707583;28;20213;-71
2022/11/09 09:29:12;;;;;;;2.83;1.40;;;13.30;97.20;;;;;;1707703;28;20603;-70
2022/11/09 09:30:04;;;;;;;1.75;1.40;;;13.30;97.20;;;;;;1707699;28;20273;-70
2022/11/09 09:30:56;;;;;;;1.25;1.15;;;13.30;97.20;;;;;;1707536;28;20226;-71
2022/11/09 09:31:48;;;;;;;1.20;1.00;;;13.40;97.20;;;;;;1707559;28;20245;-71
2022/11/09 09:32:39;;;;;;;1.45;1.35;;;13.40;97.20;;;;;;1707546;28;20692;-71
2022/11/09 09:33:30;;;;;;;1.20;1.10;;;13.40;97.20;;;;;;1707662;28;20583;-70
2022/11/09 09:34:21;;;;;;;1.50;1.33;;;13.40;97.20;;;;;;1707639;28;20199;-70
2022/11/09 09:35:13;;;;;;;1.55;1.45;;;13.40;97.20;;;;;;1707545;28;20202;-71
2022/11/09 09:36:05;;;;;;;1.83;1.45;;;13.40;97.20;;;;;;1707629;28;20202;-70
2022/11/09 09:36:56;;;;;;;2.17;1.45;;;13.40;97.20;;;;;;1704736;28;20194;-70
2022/11/09 09:37:49;;;;;;;2.00;1.45;;;13.40;97.20;;;;;;1700933;29;20207;-70
2022/11/09 09:38:40;;;;;;;4.43;1.60;;;13.40;97.20;;;;;;1700828;29;20203;-70
2022/11/09 09:39:32;;;;;;;1.90;1.45;;;13.50;97.20;;;;;;1700915;29;20211;-70
2022/11/09 09:40:28;;;;;;;1.50;1.40;;;13.50;97.20;;;;;;1700981;29;20389;-70
2022/11/09 09:41:25;;;;;;;1.25;1.15;;;13.50;97.20;;;;;;1701106;29;20231;-70
2022/11/09 09:42:19;;;;;;;1.33;1.23;;;13.50;97.20;;;;;;1700978;29;20210;-70
2022/11/09 09:43:17;;;;;;;1.30;1.20;;;13.50;97.20;;;;;;1700945;29;20543;-70
2022/11/09 09:44:20;;;;;;;2.72;1.35;;;13.50;97.20;;;;;;1700796;29;20234;-70
2022/11/09 09:45:17;;;;;;;1.65;1.55;;;13.50;97.20;;;;;;1700960;29;20211;-71
2022/11/09 09:46:22;;;;;;;1.73;1.63;;;13.50;97.20;;;;;;1700789;29;20559;-70
2022/11/09 09:47:18;;;;;;;2.20;2.00;;;13.60;97.20;;;;;;1700973;29;20215;-70
2022/11/09 09:48:21;;;;;;;1.80;1.65;;;13.60;97.20;;;;;;1700837;29;20207;-71
2022/11/09 09:49:17;;;;;;;2.13;1.65;;;13.60;97.20;;;;;;1700911;29;20211;-71
2022/11/09 09:50:12;;;;;;;3.42;2.80;;;13.70;97.20;;;;;;1701085;29;20210;-71
2022/11/09 09:51:11;;;;;;;3.38;3.00;;;13.70;97.20;;;;;;1702318;29;20214;-71
2022/11/09 09:52:08;;;;;;;2.17;1.95;;;13.70;97.20;;;;;;1702510;28;20207;-71
2022/11/09 09:53:10;;;;;;;2.35;2.08;;;13.80;97.20;;;;;;1701044;29;20235;-71
2022/11/09 09:54:07;;;;;;;2.05;1.80;;;13.80;97.20;;;;;;1700885;29;20204;-71
2022/11/09 09:55:07;;;;;;;2.50;2.30;;;13.80;97.20;;;;;;1700986;29;20278;-70
2022/11/09 09:56:04;;;;;;;2.47;2.28;;;13.80;97.20;;;;;;1700954;29;20199;-70
2022/11/09 09:56:59;;;;;;;3.95;2.60;;;13.80;97.20;;;;;;1700551;29;20263;-70
2022/11/09 09:57:54;;;;;;;2.92;2.58;;;13.80;97.20;;;;;;1700832;29;20210;-70
2022/11/09 09:58:50;;;;;;;2.97;2.70;;;13.90;97.20;;;;;;1700838;29;20586;-71
2022/11/09 09:59:43;;;;;;;2.70;2.50;;;13.90;97.20;;;;;;1700951;29;20203;-71
2022/11/09 10:00:37;;;;;;;2.88;2.50;;;13.90;97.20;;;;;;1700787;29;20231;-70
2022/11/09 10:01:36;;;;;;;2.97;2.67;;;13.90;97.20;;;;;;1700786;29;20202;-70
2022/11/09 10:02:29;;;;;;;3.40;2.30;;;13.90;97.20;;;;;;1700489;29;20558;-70
2022/11/09 10:03:21;;;;;;;2.65;2.20;;;13.90;97.20;;;;;;1700845;29;20199;-70
2022/11/09 10:04:19;;;;;;;2.45;2.00;;;13.90;97.20;;;;;;1700738;29;20227;-70
2022/11/09 10:05:15;;;;;;;3.55;2.15;;;13.90;97.20;;;;;;1701163;29;20206;-70
2022/11/09 10:06:25;;;;;;;3.35;2.55;;;13.90;97.20;;;;;;1706201;28;20281;-70
2022/11/09 10:07:21;;;;;;;2.67;2.00;;;13.90;97.20;;;;;;1706754;28;20217;-71
2022/11/09 10:08:21;;;;;;;2.30;2.10;;;14.00;97.20;;;;;;1706952;28;20601;-70
2022/11/09 10:09:24;;;;;;;2.22;2.03;;;14.00;97.20;;;;;;1707403;28;20264;-70
2022/11/09 10:10:36;;;;;;;3.22;2.15;;;14.00;97.20;;;;;;1707356;28;20211;-70
2022/11/09 10:11:34;;;;;;;2.58;2.00;;;14.00;97.20;;;;;;1707459;28;20217;-70
2022/11/09 10:12:38;;;;;;;2.38;1.90;;;14.10;97.20;;;;;;1707435;28;20198;-70
2022/11/09 10:13:55;;;;;;;1.92;1.80;;;14.10;97.20;;;;;;1707426;28;20210;-70
2022/11/09 10:15:00;;;;;;;2.15;1.95;;;14.10;97.20;;;;;;1705826;29;20207;-70
2022/11/09 10:15:55;;;;;;;2.03;1.83;;;14.10;97.20;;;;;;1707380;28;20261;-70
2022/11/09 10:16:52;;;;;;;2.92;2.08;;;14.20;97.20;;;;;;1707176;28;20210;-71
2022/11/09 10:17:54;;;;;;;3.58;2.17;;;14.20;97.20;;;;;;1707474;28;20285;-70
2022/11/09 10:19:11;;;;;;;5.65;3.85;;;14.20;97.20;;;;;;1707277;28;20237;-71
2022/11/09 10:20:19;;;;;;;3.38;3.08;;;14.20;97.20;;;;;;1705704;28;20202;-70
2022/11/09 10:21:34;;;;;;;3.20;2.83;;;14.30;97.20;;;;;;1707319;28;20210;-70
2022/11/09 10:22:36;;;;;;;3.10;2.80;;;14.30;97.20;;;;;;1707315;28;20202;-70
2022/11/09 10:23:46;;;;;;;2.85;2.65;;;14.40;97.20;;;;;;1707274;28;20249;-71
2022/11/09 10:24:49;;;;;;;3.00;2.70;;;14.40;97.20;;;;;;1707328;28;20222;-70
2022/11/09 10:25:44;;;;;;;2.30;2.10;;;14.50;97.20;;;;;;1707448;28;20202;-70
2022/11/09 10:26:43;;;;;;;3.00;2.60;;;14.50;97.20;;;;;;1707056;28;20211;-70
2022/11/09 10:27:39;;;;;;;2.72;2.25;;;14.50;97.20;;;;;;1707313;28;20213;-70
2022/11/09 10:28:32;;;;;;;2.45;2.25;;;14.50;97.20;;;;;;1707225;28;20582;-70
2022/11/09 10:29:26;;;;;;;3.40;2.10;;;14.60;97.20;;;;;;1707333;28;20206;-70
2022/11/09 10:30:18;;;;;;;2.20;1.98;;;14.60;97.20;;;;;;1707284;28;20206;-70
2022/11/09 10:31:17;;;;;;;2.45;2.25;;;14.70;97.20;;;;;;1707367;28;20206;-70
2022/11/09 10:32:13;;;;;;;2.40;2.20;;;14.70;97.20;;;;;;1707189;28;20684;-70
2022/11/09 10:33:17;;;;;;;2.38;2.17;;;14.80;97.20;;;;;;1707305;28;20203;-70
2022/11/09 10:34:16;;;;;;;2.60;2.40;;;14.90;97.20;;;;;;1705723;28;20206;-71
2022/11/09 10:35:19;;;;;;;3.00;2.60;;;14.90;97.20;;;;;;1707377;28;20233;-71
2022/11/09 10:36:23;;;;;;;2.97;2.67;;;15.00;97.20;;;;;;1706977;28;20257;-70